CZN9A OMDB-EGLL
Flight info
| Callsign | CZN9A |
|---|---|
| Flight time | N/A |
| Altitude | 36000 |
| Route | SENPA N571 ALPOB L768 ULADA Q143 MEDGO N697 HIL A788 HLF L604 WEJ L677 CVO L617 MENKU/N0490F380 L617 NOZ L551 ANTAR UN133 KPC DCT FSK DCT DISOR DCT LONTA UL608 DOLEV DCT BOSNA DCT MARIL DCT OKSIG DCT KUSIB DCT GORPA DCT DOL DCT NIPEL DCT MODSA DCT BABEG DCT LIRSU DCT ARCKY DCT BUB L608 LOGAN |
| Aircraft | A35K/H-SDE2E3GHIJ3J4J5LM1ORWXY/LB1D1 |
Departure
| Time | 2026-05-03 23:11 |
|---|---|
| Airport | Dubai International Airport (OMDB) |
Arrival
| Time | N/A |
|---|---|
| Airport | London Heathrow Airport (EGLL) |
| Time | Latitude | Longitude | Altitude | Speed | Heading |
|---|---|---|---|---|---|
| 2026-05-03 22:55 | 25.24477 | 55.37146 | 28 ft | 0 kts | 211° |
| 2026-05-03 22:57 | 25.24488 | 55.37153 | 28 ft | 4 kts | 205° |
| 2026-05-03 22:57 | 25.24513 | 55.37163 | 27 ft | 4 kts | 188° |
| 2026-05-03 22:57 | 25.24540 | 55.37163 | 27 ft | 4 kts | 167° |
| 2026-05-03 22:58 | 25.24565 | 55.37153 | 26 ft | 4 kts | 149° |
| 2026-05-03 22:58 | 25.24587 | 55.37135 | 25 ft | 4 kts | 134° |
| 2026-05-03 22:58 | 25.24604 | 55.37113 | 25 ft | 4 kts | 124° |
| 2026-05-03 22:58 | 25.24619 | 55.37088 | 25 ft | 4 kts | 119° |
| 2026-05-03 22:59 | 25.24629 | 55.37067 | 26 ft | 0 kts | 122° |
| 2026-05-03 23:01 | 25.24624 | 55.37077 | 28 ft | 3 kts | 121° |
| 2026-05-03 23:02 | 25.24610 | 55.37090 | 28 ft | 3 kts | 148° |
| 2026-05-03 23:02 | 25.24605 | 55.37102 | 28 ft | 1 kts | 104° |
| 2026-05-03 23:02 | 25.24608 | 55.37108 | 28 ft | 1 kts | 73° |
| 2026-05-03 23:02 | 25.24616 | 55.37112 | 28 ft | 1 kts | 25° |
| 2026-05-03 23:03 | 25.24625 | 55.37108 | 28 ft | 1 kts | 335° |
| 2026-05-03 23:03 | 25.24634 | 55.37090 | 28 ft | 5 kts | 296° |
| 2026-05-03 23:03 | 25.24655 | 55.37033 | 27 ft | 11 kts | 292° |
| 2026-05-03 23:03 | 25.24695 | 55.36953 | 28 ft | 13 kts | 302° |
| 2026-05-03 23:04 | 25.24744 | 55.36866 | 28 ft | 14 kts | 298° |
| 2026-05-03 23:04 | 25.24776 | 55.36763 | 28 ft | 15 kts | 282° |
| 2026-05-03 23:04 | 25.24806 | 55.36647 | 28 ft | 16 kts | 288° |
| 2026-05-03 23:04 | 25.24836 | 55.36582 | 28 ft | 16 kts | 302° |
| 2026-05-03 23:05 | 25.24864 | 55.36533 | 28 ft | 16 kts | 301° |
| 2026-05-03 23:05 | 25.24867 | 55.36527 | 28 ft | 16 kts | 301° |
| 2026-05-03 23:05 | 25.24897 | 55.36474 | 28 ft | 15 kts | 302° |
| 2026-05-03 23:05 | 25.24949 | 55.36381 | 28 ft | 13 kts | 302° |
| 2026-05-03 23:06 | 25.24998 | 55.36293 | 28 ft | 14 kts | 302° |
| 2026-05-03 23:06 | 25.25053 | 55.36197 | 28 ft | 15 kts | 302° |
| 2026-05-03 23:06 | 25.25111 | 55.36092 | 28 ft | 17 kts | 302° |
| 2026-05-03 23:06 | 25.25164 | 55.35999 | 28 ft | 8 kts | 302° |
| 2026-05-03 23:07 | 25.25195 | 55.35944 | 28 ft | 9 kts | 302° |
| 2026-05-03 23:07 | 25.25232 | 55.35879 | 28 ft | 11 kts | 302° |
| 2026-05-03 23:07 | 25.25274 | 55.35804 | 28 ft | 12 kts | 301° |
| 2026-05-03 23:07 | 25.25318 | 55.35726 | 28 ft | 10 kts | 302° |
| 2026-05-03 23:08 | 25.25380 | 55.35698 | 28 ft | 11 kts | 8° |
| 2026-05-03 23:08 | 25.25451 | 55.35733 | 28 ft | 12 kts | 30° |
| 2026-05-03 23:08 | 25.25525 | 55.35782 | 28 ft | 13 kts | 31° |
| 2026-05-03 23:08 | 25.25588 | 55.35851 | 28 ft | 13 kts | 80° |
| 2026-05-03 23:09 | 25.25555 | 55.35944 | 28 ft | 14 kts | 120° |
| 2026-05-03 23:09 | 25.25542 | 55.35967 | 28 ft | 0 kts | 121° |
| 2026-05-03 23:09 | 25.25537 | 55.35977 | 28 ft | 3 kts | 121° |
| 2026-05-03 23:09 | 25.25528 | 55.35993 | 28 ft | 0 kts | 121° |
| 2026-05-03 23:10 | 25.25517 | 55.36014 | 28 ft | 14 kts | 121° |
| 2026-05-03 23:10 | 25.25430 | 55.36171 | 28 ft | 58 kts | 122° |
| 2026-05-03 23:10 | 25.25104 | 55.36757 | 28 ft | 119 kts | 122° |
| 2026-05-03 23:11 | 25.24579 | 55.37701 | 30 ft | 169 kts | 122° |
| 2026-05-03 23:11 | 25.23942 | 55.38802 | 637 ft | 166 kts | 123° |
| 2026-05-03 23:11 | 25.23319 | 55.39934 | 1031 ft | 181 kts | 121° |
| 2026-05-03 23:11 | 25.22629 | 55.41192 | 1255 ft | 202 kts | 122° |
| 2026-05-03 23:12 | 25.21856 | 55.42591 | 1420 ft | 225 kts | 122° |
| 2026-05-03 23:12 | 25.20838 | 55.43990 | 1623 ft | 242 kts | 143° |
| 2026-05-03 23:12 | 25.19282 | 55.44631 | 2028 ft | 241 kts | 184° |
| 2026-05-03 23:12 | 25.17724 | 55.44160 | 2621 ft | 231 kts | 212° |
| 2026-05-03 23:13 | 25.16337 | 55.43252 | 3226 ft | 232 kts | 216° |
| 2026-05-03 23:13 | 25.15037 | 55.42198 | 3809 ft | 231 kts | 229° |
| 2026-05-03 23:13 | 25.14234 | 55.40704 | 4369 ft | 227 kts | 258° |
| 2026-05-03 23:13 | 25.14151 | 55.38982 | 4971 ft | 225 kts | 275° |
| 2026-05-03 23:14 | 25.14309 | 55.37262 | 5581 ft | 225 kts | 277° |
| 2026-05-03 23:14 | 25.14482 | 55.35560 | 6172 ft | 227 kts | 277° |
| 2026-05-03 23:14 | 25.14652 | 55.33805 | 6746 ft | 228 kts | 277° |
| 2026-05-03 23:14 | 25.14811 | 55.32083 | 7320 ft | 229 kts | 276° |
| 2026-05-03 23:15 | 25.15006 | 55.30327 | 7948 ft | 231 kts | 281° |
| 2026-05-03 23:15 | 25.15382 | 55.28558 | 8359 ft | 245 kts | 285° |
| 2026-05-03 23:15 | 25.15845 | 55.26681 | 8671 ft | 261 kts | 285° |
| 2026-05-03 23:15 | 25.16336 | 55.24722 | 9231 ft | 267 kts | 285° |
| 2026-05-03 23:16 | 25.16829 | 55.22744 | 9889 ft | 270 kts | 285° |
| 2026-05-03 23:16 | 25.17339 | 55.20721 | 10353 ft | 281 kts | 286° |
| 2026-05-03 23:16 | 25.17877 | 55.18576 | 10609 ft | 299 kts | 286° |
| 2026-05-03 23:16 | 25.18446 | 55.16303 | 10856 ft | 316 kts | 286° |
| 2026-05-03 23:17 | 25.19045 | 55.13906 | 11081 ft | 332 kts | 286° |
| 2026-05-03 23:17 | 25.19671 | 55.11398 | 11319 ft | 346 kts | 285° |
| 2026-05-03 23:17 | 25.20323 | 55.08784 | 11550 ft | 360 kts | 285° |
| 2026-05-03 23:17 | 25.20998 | 55.06073 | 11794 ft | 371 kts | 285° |
| 2026-05-03 23:18 | 25.21667 | 55.03351 | 12194 ft | 376 kts | 285° |
| 2026-05-03 23:18 | 25.22356 | 55.00545 | 12646 ft | 380 kts | 285° |
| 2026-05-03 23:18 | 25.23017 | 54.97704 | 13075 ft | 385 kts | 284° |
| 2026-05-03 23:18 | 25.23640 | 54.94803 | 13529 ft | 389 kts | 284° |
| 2026-05-03 23:19 | 25.24266 | 54.91888 | 13960 ft | 391 kts | 284° |
| 2026-05-03 23:19 | 25.24900 | 54.88956 | 14422 ft | 393 kts | 284° |
| 2026-05-03 23:19 | 25.25543 | 54.86014 | 14909 ft | 395 kts | 284° |
| 2026-05-03 23:19 | 25.26185 | 54.83063 | 15366 ft | 396 kts | 285° |
| 2026-05-03 23:20 | 25.26830 | 54.80100 | 15836 ft | 398 kts | 285° |
| 2026-05-03 23:20 | 25.27478 | 54.77124 | 16304 ft | 399 kts | 285° |
| 2026-05-03 23:20 | 25.28128 | 54.74142 | 16765 ft | 401 kts | 285° |
| 2026-05-03 23:20 | 25.28846 | 54.71153 | 17221 ft | 403 kts | 287° |
| 2026-05-03 23:21 | 25.29618 | 54.68168 | 17696 ft | 404 kts | 288° |
| 2026-05-03 23:21 | 25.30396 | 54.65156 | 18139 ft | 406 kts | 287° |
| 2026-05-03 23:21 | 25.31167 | 54.62146 | 18528 ft | 409 kts | 287° |
| 2026-05-03 23:21 | 25.31937 | 54.59117 | 18941 ft | 410 kts | 287° |
| 2026-05-03 23:22 | 25.33484 | 54.52999 | 19684 ft | 415 kts | 287° |
| 2026-05-03 23:22 | 25.34263 | 54.49918 | 20068 ft | 418 kts | 287° |
| 2026-05-03 23:22 | 25.35051 | 54.46814 | 20446 ft | 421 kts | 287° |
| 2026-05-03 23:23 | 25.35836 | 54.43736 | 20836 ft | 423 kts | 287° |
| 2026-05-03 23:23 | 25.36640 | 54.40595 | 21232 ft | 426 kts | 287° |
| 2026-05-03 23:23 | 25.37452 | 54.37439 | 21639 ft | 428 kts | 287° |
| 2026-05-03 23:23 | 25.38273 | 54.34261 | 22051 ft | 431 kts | 287° |
| 2026-05-03 23:24 | 25.39102 | 54.31070 | 22446 ft | 434 kts | 287° |
| 2026-05-03 23:24 | 25.39939 | 54.27859 | 22849 ft | 436 kts | 287° |
| 2026-05-03 23:24 | 25.40785 | 54.24624 | 23250 ft | 439 kts | 287° |
| 2026-05-03 23:24 | 25.41642 | 54.21368 | 23562 ft | 442 kts | 287° |
| 2026-05-03 23:25 | 25.42509 | 54.18094 | 23937 ft | 444 kts | 287° |
| 2026-05-03 23:25 | 25.43383 | 54.14815 | 24333 ft | 445 kts | 287° |
| 2026-05-03 23:25 | 25.44261 | 54.11539 | 24768 ft | 445 kts | 287° |
| 2026-05-03 23:25 | 25.45147 | 54.08257 | 25201 ft | 446 kts | 287° |
| 2026-05-03 23:26 | 25.46043 | 54.04964 | 25631 ft | 447 kts | 287° |
| 2026-05-03 23:26 | 25.46946 | 54.01663 | 26083 ft | 449 kts | 287° |
| 2026-05-03 23:26 | 25.47856 | 53.98358 | 26514 ft | 451 kts | 287° |
| 2026-05-03 23:26 | 25.48781 | 53.95035 | 26930 ft | 453 kts | 287° |
| 2026-05-03 23:27 | 25.49716 | 53.91696 | 27365 ft | 455 kts | 287° |
| 2026-05-03 23:27 | 25.50658 | 53.88347 | 27797 ft | 456 kts | 287° |
| 2026-05-03 23:27 | 25.51607 | 53.84996 | 28204 ft | 458 kts | 287° |
| 2026-05-03 23:27 | 25.52566 | 53.81625 | 28642 ft | 460 kts | 287° |
| 2026-05-03 23:28 | 25.53532 | 53.78245 | 29027 ft | 461 kts | 287° |
| 2026-05-03 23:28 | 25.54505 | 53.74855 | 29424 ft | 462 kts | 287° |
| 2026-05-03 23:28 | 25.55485 | 53.71470 | 29944 ft | 460 kts | 287° |
| 2026-05-03 23:28 | 25.56468 | 53.68115 | 30472 ft | 456 kts | 287° |
| 2026-05-03 23:29 | 25.57454 | 53.64785 | 30975 ft | 453 kts | 287° |
| 2026-05-03 23:29 | 25.58447 | 53.61476 | 31328 ft | 453 kts | 287° |
| 2026-05-03 23:29 | 25.59449 | 53.58167 | 31698 ft | 453 kts | 287° |
| 2026-05-03 23:29 | 25.60461 | 53.54861 | 32068 ft | 452 kts | 287° |
| 2026-05-03 23:30 | 25.61479 | 53.51568 | 32445 ft | 451 kts | 287° |
| 2026-05-03 23:30 | 25.62503 | 53.48286 | 32825 ft | 450 kts | 287° |
| 2026-05-03 23:30 | 25.63520 | 53.45055 | 33177 ft | 450 kts | 287° |
| 2026-05-03 23:30 | 25.64557 | 53.41790 | 33519 ft | 449 kts | 287° |
| 2026-05-03 23:31 | 25.65613 | 53.38488 | 33873 ft | 448 kts | 287° |
| 2026-05-03 23:31 | 25.66644 | 53.35279 | 34123 ft | 448 kts | 287° |
| 2026-05-03 23:31 | 25.67689 | 53.32031 | 34380 ft | 448 kts | 287° |
| 2026-05-03 23:31 | 25.68735 | 53.28776 | 34632 ft | 448 kts | 287° |
| 2026-05-03 23:32 | 25.69778 | 53.25530 | 34931 ft | 446 kts | 287° |
| 2026-05-03 23:32 | 25.70835 | 53.22249 | 35195 ft | 446 kts | 287° |
| 2026-05-03 23:32 | 25.71881 | 53.19008 | 35417 ft | 446 kts | 287° |
| 2026-05-03 23:32 | 25.72926 | 53.15772 | 35653 ft | 446 kts | 287° |
| 2026-05-03 23:33 | 25.73961 | 53.12567 | 35773 ft | 449 kts | 287° |
| 2026-05-03 23:33 | 25.75016 | 53.09298 | 35785 ft | 452 kts | 287° |
| 2026-05-03 23:33 | 25.77136 | 53.02727 | 35787 ft | 452 kts | 287° |
| 2026-05-03 23:34 | 25.79259 | 52.96165 | 35786 ft | 450 kts | 287° |
| 2026-05-03 23:34 | 25.81371 | 52.89668 | 35788 ft | 445 kts | 287° |
| 2026-05-03 23:35 | 25.83463 | 52.83244 | 35789 ft | 440 kts | 287° |
| 2026-05-03 23:35 | 25.85536 | 52.76889 | 35789 ft | 435 kts | 287° |
| 2026-05-03 23:36 | 25.87594 | 52.70605 | 35792 ft | 431 kts | 287° |
| 2026-05-03 23:36 | 25.89638 | 52.64381 | 35794 ft | 427 kts | 287° |
| 2026-05-03 23:37 | 25.91666 | 52.58220 | 35795 ft | 423 kts | 287° |
| 2026-05-03 23:37 | 25.93680 | 52.52109 | 35794 ft | 419 kts | 287° |
| 2026-05-03 23:38 | 25.95684 | 52.46058 | 35800 ft | 416 kts | 287° |
| 2026-05-03 23:38 | 25.97675 | 52.40064 | 35799 ft | 412 kts | 287° |
| 2026-05-03 23:39 | 25.99652 | 52.34122 | 35799 ft | 408 kts | 287° |
| 2026-05-03 23:39 | 26.01617 | 52.28226 | 35798 ft | 409 kts | 287° |
| 2026-05-03 23:40 | 26.03621 | 52.22214 | 35800 ft | 421 kts | 287° |
| 2026-05-03 23:40 | 26.06224 | 52.16317 | 35803 ft | 436 kts | 298° |
| 2026-05-03 23:41 | 26.09659 | 52.10623 | 35801 ft | 450 kts | 301° |
| 2026-05-03 23:41 | 26.13369 | 52.04908 | 35799 ft | 460 kts | 302° |
| 2026-05-03 23:42 | 26.16990 | 51.99050 | 35807 ft | 458 kts | 296° |
| 2026-05-03 23:42 | 26.19986 | 51.92799 | 35806 ft | 457 kts | 294° |
| 2026-05-03 23:43 | 26.22803 | 51.86459 | 35812 ft | 456 kts | 292° |
| 2026-05-03 23:43 | 26.25562 | 51.80100 | 35809 ft | 455 kts | 292° |
| 2026-05-03 23:44 | 26.28356 | 51.73766 | 35812 ft | 456 kts | 293° |
| 2026-05-03 23:44 | 26.31175 | 51.67440 | 35812 ft | 456 kts | 293° |
| 2026-05-03 23:45 | 26.33999 | 51.61112 | 35812 ft | 456 kts | 293° |
| 2026-05-03 23:45 | 26.36820 | 51.54784 | 35812 ft | 456 kts | 293° |
| 2026-05-03 23:46 | 26.39184 | 51.48270 | 35818 ft | 452 kts | 287° |
| 2026-05-03 23:46 | 26.41319 | 51.41680 | 35818 ft | 451 kts | 287° |
| 2026-05-03 23:47 | 26.43414 | 51.35078 | 35815 ft | 451 kts | 287° |
| 2026-05-03 23:47 | 26.45517 | 51.28471 | 35818 ft | 452 kts | 286° |
| 2026-05-03 23:48 | 26.47623 | 51.21872 | 35821 ft | 452 kts | 287° |
| 2026-05-03 23:48 | 26.49727 | 51.15263 | 35833 ft | 451 kts | 286° |
| 2026-05-03 23:49 | 26.51815 | 51.08700 | 35818 ft | 446 kts | 286° |
| 2026-05-03 23:49 | 26.53875 | 51.02212 | 35822 ft | 441 kts | 286° |
| 2026-05-03 23:50 | 26.55567 | 50.96875 | 35820 ft | 437 kts | 286° |
| 2026-05-03 23:50 | 26.57903 | 50.89478 | 35819 ft | 434 kts | 285° |
| 2026-05-03 23:51 | 26.59859 | 50.83070 | 35822 ft | 437 kts | 285° |
| 2026-05-03 23:51 | 26.61825 | 50.76609 | 35833 ft | 441 kts | 285° |
| 2026-05-03 23:52 | 26.63827 | 50.70101 | 35823 ft | 444 kts | 285° |
| 2026-05-03 23:52 | 26.65824 | 50.63548 | 35823 ft | 446 kts | 285° |
| 2026-05-03 23:53 | 26.67769 | 50.56941 | 35826 ft | 449 kts | 285° |
| 2026-05-03 23:53 | 26.69724 | 50.50304 | 35830 ft | 450 kts | 285° |
| 2026-05-03 23:54 | 26.71639 | 50.43657 | 35826 ft | 448 kts | 283° |
| 2026-05-03 23:54 | 26.73349 | 50.36960 | 35827 ft | 447 kts | 282° |
| 2026-05-03 23:55 | 26.75003 | 50.30274 | 35830 ft | 446 kts | 281° |
| 2026-05-03 23:55 | 26.75773 | 50.23446 | 35830 ft | 442 kts | 270° |
| 2026-05-03 23:56 | 26.75912 | 50.16578 | 35829 ft | 442 kts | 269° |
| 2026-05-03 23:56 | 26.75956 | 50.09703 | 35829 ft | 442 kts | 269° |
| 2026-05-03 23:57 | 26.75997 | 50.02844 | 35823 ft | 442 kts | 269° |
| 2026-05-03 23:57 | 26.76050 | 49.95967 | 35819 ft | 442 kts | 269° |
| 2026-05-03 23:58 | 26.76110 | 49.89089 | 35823 ft | 442 kts | 269° |
| 2026-05-03 23:58 | 26.76153 | 49.83371 | 35817 ft | 442 kts | 269° |
| 2026-05-03 23:59 | 26.76200 | 49.76497 | 35815 ft | 441 kts | 269° |
| 2026-05-03 23:59 | 26.76251 | 49.68534 | 35816 ft | 440 kts | 269° |
| 2026-05-04 00:00 | 26.76286 | 49.62796 | 35817 ft | 440 kts | 269° |
| 2026-05-04 00:00 | 26.76326 | 49.55951 | 35817 ft | 440 kts | 269° |
| 2026-05-04 00:01 | 26.76364 | 49.49094 | 35821 ft | 440 kts | 269° |
| 2026-05-04 00:01 | 26.76400 | 49.42241 | 35826 ft | 441 kts | 269° |
| 2026-05-04 00:02 | 26.76435 | 49.35428 | 35826 ft | 441 kts | 269° |
| 2026-05-04 00:02 | 26.76463 | 49.28572 | 35832 ft | 441 kts | 268° |
| 2026-05-04 00:03 | 26.76485 | 49.21719 | 35837 ft | 440 kts | 268° |
| 2026-05-04 00:03 | 26.76503 | 49.14864 | 35847 ft | 441 kts | 268° |
| 2026-05-04 00:04 | 26.76521 | 49.08020 | 35849 ft | 440 kts | 268° |
| 2026-05-04 00:04 | 26.76535 | 49.01184 | 35849 ft | 439 kts | 268° |
| 2026-05-04 00:05 | 26.76546 | 48.94363 | 35845 ft | 439 kts | 268° |
| 2026-05-04 00:05 | 26.76553 | 48.87519 | 35848 ft | 439 kts | 268° |
| 2026-05-04 00:06 | 26.76558 | 48.80689 | 35857 ft | 439 kts | 268° |
| 2026-05-04 00:06 | 26.76559 | 48.73858 | 35856 ft | 439 kts | 268° |
| 2026-05-04 00:07 | 26.76539 | 48.67033 | 35860 ft | 439 kts | 267° |
| 2026-05-04 00:07 | 26.76358 | 48.60255 | 35865 ft | 438 kts | 266° |
| 2026-05-04 00:08 | 26.76135 | 48.53436 | 35870 ft | 439 kts | 266° |
| 2026-05-04 00:08 | 26.75932 | 48.46610 | 35872 ft | 439 kts | 266° |
| 2026-05-04 00:09 | 26.75743 | 48.39789 | 35876 ft | 439 kts | 266° |
| 2026-05-04 00:09 | 26.75557 | 48.32969 | 35881 ft | 439 kts | 266° |
| 2026-05-04 00:10 | 26.75370 | 48.26152 | 35889 ft | 439 kts | 266° |
| 2026-05-04 00:10 | 26.75175 | 48.19328 | 35893 ft | 439 kts | 266° |
| 2026-05-04 00:11 | 26.74977 | 48.12506 | 35897 ft | 439 kts | 266° |
| 2026-05-04 00:11 | 26.74777 | 48.05676 | 35897 ft | 439 kts | 266° |
| 2026-05-04 00:12 | 26.74574 | 47.98854 | 35900 ft | 439 kts | 266° |
| 2026-05-04 00:12 | 26.74368 | 47.92050 | 35906 ft | 439 kts | 266° |
| 2026-05-04 00:13 | 26.74417 | 47.85216 | 35911 ft | 440 kts | 270° |
| 2026-05-04 00:13 | 26.74733 | 47.78376 | 35916 ft | 439 kts | 271° |
| 2026-05-04 00:14 | 26.75086 | 47.71562 | 35915 ft | 439 kts | 271° |
| 2026-05-04 00:14 | 26.75434 | 47.64749 | 35913 ft | 438 kts | 271° |
| 2026-05-04 00:15 | 26.75769 | 47.58000 | 35917 ft | 438 kts | 271° |
| 2026-05-04 00:15 | 26.76102 | 47.51187 | 35919 ft | 438 kts | 270° |
| 2026-05-04 00:16 | 26.76430 | 47.44376 | 35922 ft | 438 kts | 270° |
| 2026-05-04 00:16 | 26.76847 | 47.37571 | 35923 ft | 440 kts | 275° |
| 2026-05-04 00:17 | 26.77795 | 47.30792 | 35919 ft | 441 kts | 276° |
| 2026-05-04 00:17 | 26.78835 | 47.24041 | 35927 ft | 440 kts | 276° |
| 2026-05-04 00:18 | 26.79886 | 47.17300 | 35914 ft | 439 kts | 276° |
| 2026-05-04 00:18 | 26.80925 | 47.10562 | 35928 ft | 440 kts | 276° |
| 2026-05-04 00:19 | 26.81955 | 47.03823 | 35927 ft | 440 kts | 276° |
| 2026-05-04 00:19 | 26.82981 | 46.97077 | 35934 ft | 440 kts | 276° |
| 2026-05-04 00:20 | 26.83998 | 46.90377 | 35928 ft | 439 kts | 276° |
| 2026-05-04 00:20 | 26.85017 | 46.83644 | 35929 ft | 438 kts | 276° |
| 2026-05-04 00:21 | 26.86030 | 46.76924 | 35931 ft | 437 kts | 276° |
| 2026-05-04 00:21 | 26.87040 | 46.70204 | 35926 ft | 437 kts | 276° |
| 2026-05-04 00:22 | 26.88045 | 46.63489 | 35931 ft | 437 kts | 276° |
| 2026-05-04 00:22 | 26.89048 | 46.56773 | 35937 ft | 437 kts | 276° |
| 2026-05-04 00:23 | 26.90047 | 46.50054 | 35925 ft | 437 kts | 276° |
| 2026-05-04 00:23 | 26.91043 | 46.43341 | 35937 ft | 436 kts | 276° |
| 2026-05-04 00:24 | 26.92036 | 46.36643 | 35933 ft | 435 kts | 276° |
| 2026-05-04 00:24 | 26.93028 | 46.29957 | 35933 ft | 435 kts | 276° |
| 2026-05-04 00:25 | 26.94013 | 46.23273 | 35932 ft | 435 kts | 275° |
| 2026-05-04 00:25 | 26.94996 | 46.16589 | 35922 ft | 435 kts | 275° |
| 2026-05-04 00:26 | 26.95976 | 46.09901 | 35929 ft | 435 kts | 275° |
| 2026-05-04 00:26 | 26.96955 | 46.03207 | 35920 ft | 435 kts | 275° |
| 2026-05-04 00:27 | 26.97929 | 45.96528 | 35923 ft | 433 kts | 275° |
| 2026-05-04 00:27 | 26.98897 | 45.89860 | 35925 ft | 434 kts | 275° |
| 2026-05-04 00:28 | 26.99856 | 45.83226 | 35917 ft | 434 kts | 275° |
| 2026-05-04 00:28 | 27.00820 | 45.76541 | 35928 ft | 434 kts | 275° |
| 2026-05-04 00:29 | 27.01781 | 45.69854 | 35924 ft | 435 kts | 275° |
| 2026-05-04 00:29 | 27.02740 | 45.63159 | 35929 ft | 435 kts | 275° |
| 2026-05-04 00:30 | 27.03693 | 45.56490 | 35921 ft | 433 kts | 275° |
| 2026-05-04 00:30 | 27.04646 | 45.49823 | 35928 ft | 433 kts | 275° |
| 2026-05-04 00:31 | 27.05589 | 45.43153 | 35923 ft | 433 kts | 275° |
| 2026-05-04 00:31 | 27.06380 | 45.36462 | 35923 ft | 432 kts | 273° |
| 2026-05-04 00:32 | 27.07079 | 45.29766 | 35924 ft | 432 kts | 273° |
| 2026-05-04 00:32 | 27.07796 | 45.23073 | 35933 ft | 432 kts | 273° |
| 2026-05-04 00:33 | 27.08900 | 45.13066 | 35923 ft | 430 kts | 273° |
| 2026-05-04 00:34 | 27.09635 | 45.06409 | 35914 ft | 430 kts | 273° |
| 2026-05-04 00:34 | 27.10365 | 44.99752 | 35915 ft | 430 kts | 273° |
| 2026-05-04 00:35 | 27.11091 | 44.93106 | 35907 ft | 428 kts | 272° |
| 2026-05-04 00:35 | 27.11813 | 44.86468 | 35913 ft | 428 kts | 272° |
| 2026-05-04 00:36 | 27.12530 | 44.79834 | 35908 ft | 428 kts | 272° |
| 2026-05-04 00:36 | 27.13240 | 44.73241 | 35906 ft | 428 kts | 272° |
| 2026-05-04 00:37 | 27.13954 | 44.66609 | 35906 ft | 428 kts | 272° |
| 2026-05-04 00:37 | 27.14664 | 44.59967 | 35918 ft | 428 kts | 272° |
| 2026-05-04 00:38 | 27.15369 | 44.53337 | 35911 ft | 428 kts | 272° |
| 2026-05-04 00:38 | 27.16067 | 44.46746 | 35910 ft | 429 kts | 272° |
| 2026-05-04 00:39 | 27.16765 | 44.40136 | 35918 ft | 428 kts | 272° |
| 2026-05-04 00:39 | 27.17466 | 44.33506 | 35911 ft | 427 kts | 272° |
| 2026-05-04 00:40 | 27.18147 | 44.26908 | 35914 ft | 426 kts | 272° |
| 2026-05-04 00:40 | 27.18826 | 44.20288 | 35922 ft | 426 kts | 272° |
| 2026-05-04 00:41 | 27.19504 | 44.13680 | 35915 ft | 426 kts | 272° |
| 2026-05-04 00:41 | 27.20179 | 44.07068 | 35917 ft | 426 kts | 272° |
| 2026-05-04 00:42 | 27.20839 | 44.00586 | 35918 ft | 426 kts | 272° |
| 2026-05-04 00:42 | 27.21507 | 43.93991 | 35928 ft | 425 kts | 272° |
| 2026-05-04 00:43 | 27.22171 | 43.87394 | 35935 ft | 425 kts | 272° |
| 2026-05-04 00:43 | 27.22833 | 43.80791 | 35934 ft | 425 kts | 272° |
| 2026-05-04 00:44 | 27.23492 | 43.74193 | 35938 ft | 425 kts | 272° |
| 2026-05-04 00:44 | 27.24148 | 43.67619 | 35938 ft | 425 kts | 272° |
| 2026-05-04 00:45 | 27.24804 | 43.61020 | 35945 ft | 425 kts | 271° |
| 2026-05-04 00:45 | 27.25454 | 43.54419 | 35946 ft | 425 kts | 271° |
| 2026-05-04 00:46 | 27.26099 | 43.47827 | 35940 ft | 424 kts | 271° |
| 2026-05-04 00:46 | 27.26743 | 43.41239 | 35952 ft | 424 kts | 271° |
| 2026-05-04 00:47 | 27.27383 | 43.34663 | 35953 ft | 423 kts | 271° |
| 2026-05-04 00:47 | 27.28020 | 43.28081 | 35952 ft | 423 kts | 271° |
| 2026-05-04 00:48 | 27.28652 | 43.21506 | 35968 ft | 423 kts | 271° |
| 2026-05-04 00:48 | 27.29282 | 43.14936 | 35959 ft | 422 kts | 271° |
| 2026-05-04 00:49 | 27.29907 | 43.08382 | 35951 ft | 422 kts | 271° |
| 2026-05-04 00:49 | 27.30529 | 43.01811 | 35991 ft | 423 kts | 271° |
| 2026-05-04 00:50 | 27.31150 | 42.95242 | 35969 ft | 422 kts | 271° |
| 2026-05-04 00:50 | 27.31660 | 42.89815 | 35971 ft | 421 kts | 271° |
| 2026-05-04 00:51 | 27.32273 | 42.83259 | 35966 ft | 421 kts | 271° |
| 2026-05-04 00:51 | 27.32882 | 42.76703 | 35977 ft | 421 kts | 271° |
| 2026-05-04 00:52 | 27.33488 | 42.70153 | 35980 ft | 421 kts | 271° |
| 2026-05-04 00:52 | 27.34091 | 42.63609 | 35978 ft | 421 kts | 270° |
| 2026-05-04 00:53 | 27.34689 | 42.57082 | 35980 ft | 421 kts | 270° |
| 2026-05-04 00:53 | 27.35285 | 42.50550 | 35985 ft | 420 kts | 270° |
| 2026-05-04 00:54 | 27.35873 | 42.44057 | 35988 ft | 420 kts | 270° |
| 2026-05-04 00:54 | 27.36465 | 42.37536 | 35994 ft | 420 kts | 270° |
| 2026-05-04 00:55 | 27.37048 | 42.31012 | 35998 ft | 419 kts | 270° |
| 2026-05-04 00:55 | 27.37627 | 42.24484 | 36007 ft | 420 kts | 270° |
| 2026-05-04 00:56 | 27.38192 | 42.18103 | 36015 ft | 420 kts | 270° |
| 2026-05-04 00:56 | 27.38769 | 42.11573 | 36013 ft | 420 kts | 270° |
| 2026-05-04 00:57 | 27.39343 | 42.05035 | 36018 ft | 419 kts | 270° |
| 2026-05-04 00:57 | 27.39913 | 41.98505 | 36045 ft | 419 kts | 270° |
| 2026-05-04 00:58 | 27.40471 | 41.92069 | 36031 ft | 418 kts | 270° |
| 2026-05-04 00:58 | 27.41032 | 41.85560 | 36037 ft | 418 kts | 270° |
| 2026-05-04 00:59 | 27.41592 | 41.79043 | 36040 ft | 418 kts | 270° |
| 2026-05-04 00:59 | 27.42035 | 41.72542 | 36049 ft | 414 kts | 265° |
| 2026-05-04 01:00 | 27.41379 | 41.66359 | 36050 ft | 406 kts | 253° |
| 2026-05-04 01:00 | 27.39426 | 41.60430 | 36035 ft | 405 kts | 246° |
| 2026-05-04 01:01 | 27.37113 | 41.54634 | 36070 ft | 407 kts | 245° |
| 2026-05-04 01:01 | 27.34778 | 41.48902 | 36052 ft | 405 kts | 245° |
| 2026-05-04 01:02 | 27.32450 | 41.43143 | 36052 ft | 404 kts | 245° |
| 2026-05-04 01:02 | 27.30133 | 41.37375 | 36060 ft | 404 kts | 245° |
| 2026-05-04 01:03 | 27.27822 | 41.31621 | 36018 ft | 403 kts | 245° |
| 2026-05-04 01:03 | 27.25509 | 41.25868 | 36053 ft | 404 kts | 245° |
| 2026-05-04 01:04 | 27.23187 | 41.20106 | 36054 ft | 405 kts | 245° |
| 2026-05-04 01:04 | 27.20863 | 41.14349 | 36053 ft | 405 kts | 245° |
| 2026-05-04 01:05 | 27.18537 | 41.08596 | 36054 ft | 404 kts | 245° |
| 2026-05-04 01:05 | 27.16219 | 41.02866 | 36053 ft | 403 kts | 245° |
| 2026-05-04 01:06 | 27.13897 | 40.97121 | 36052 ft | 405 kts | 245° |
| 2026-05-04 01:06 | 27.11575 | 40.91405 | 36056 ft | 405 kts | 245° |
| 2026-05-04 01:07 | 27.09235 | 40.85652 | 36051 ft | 405 kts | 245° |
| 2026-05-04 01:07 | 27.06898 | 40.79913 | 36049 ft | 404 kts | 245° |
| 2026-05-04 01:08 | 27.04562 | 40.74183 | 36054 ft | 404 kts | 245° |
| 2026-05-04 01:08 | 27.02219 | 40.68443 | 36048 ft | 405 kts | 245° |
| 2026-05-04 01:09 | 26.99869 | 40.62693 | 36051 ft | 405 kts | 245° |
| 2026-05-04 01:09 | 26.97515 | 40.56940 | 36051 ft | 406 kts | 245° |
| 2026-05-04 01:10 | 26.95160 | 40.51194 | 36052 ft | 406 kts | 245° |
| 2026-05-04 01:10 | 26.92810 | 40.45468 | 36052 ft | 406 kts | 245° |
| 2026-05-04 01:11 | 26.90451 | 40.39728 | 36029 ft | 405 kts | 245° |
| 2026-05-04 01:11 | 26.88086 | 40.33984 | 36045 ft | 407 kts | 245° |
| 2026-05-04 01:12 | 26.85716 | 40.28232 | 36044 ft | 407 kts | 245° |
| 2026-05-04 01:12 | 26.83340 | 40.22475 | 36046 ft | 407 kts | 245° |
| 2026-05-04 01:13 | 26.80967 | 40.16733 | 36047 ft | 407 kts | 245° |
| 2026-05-04 01:13 | 26.78589 | 40.10987 | 36046 ft | 407 kts | 245° |
| 2026-05-04 01:14 | 26.76207 | 40.05242 | 36046 ft | 407 kts | 245° |
| 2026-05-04 01:14 | 26.73825 | 39.99503 | 36046 ft | 407 kts | 244° |
| 2026-05-04 01:15 | 26.71445 | 39.93777 | 36048 ft | 406 kts | 244° |
| 2026-05-04 01:15 | 26.69060 | 39.88045 | 36054 ft | 406 kts | 244° |
| 2026-05-04 01:16 | 26.66673 | 39.82319 | 36050 ft | 406 kts | 244° |
| 2026-05-04 01:16 | 26.64281 | 39.76588 | 36045 ft | 407 kts | 244° |
| 2026-05-04 01:17 | 26.61903 | 39.70898 | 36048 ft | 407 kts | 244° |
| 2026-05-04 01:17 | 26.59502 | 39.65160 | 36045 ft | 407 kts | 244° |
| 2026-05-04 01:18 | 26.57102 | 39.59434 | 36046 ft | 407 kts | 244° |
| 2026-05-04 01:18 | 26.54701 | 39.53713 | 36042 ft | 406 kts | 244° |
| 2026-05-04 01:19 | 26.52307 | 39.48015 | 36005 ft | 405 kts | 244° |
| 2026-05-04 01:19 | 26.49907 | 39.42312 | 36039 ft | 407 kts | 244° |
| 2026-05-04 01:20 | 26.47497 | 39.36590 | 36040 ft | 407 kts | 244° |
| 2026-05-04 01:20 | 26.45088 | 39.30867 | 36038 ft | 406 kts | 245° |
| 2026-05-04 01:21 | 26.43365 | 39.24871 | 36034 ft | 408 kts | 257° |
| 2026-05-04 01:21 | 26.42679 | 39.18556 | 36034 ft | 411 kts | 261° |
| 2026-05-04 01:22 | 26.42170 | 39.12211 | 36050 ft | 411 kts | 261° |
| 2026-05-04 01:22 | 26.41670 | 39.05853 | 36031 ft | 411 kts | 261° |
| 2026-05-04 01:23 | 26.41149 | 38.99487 | 36027 ft | 412 kts | 261° |
| 2026-05-04 01:23 | 26.40616 | 38.93132 | 36030 ft | 412 kts | 261° |
| 2026-05-04 01:24 | 26.40081 | 38.86803 | 36028 ft | 412 kts | 261° |
| 2026-05-04 01:24 | 26.39539 | 38.80429 | 36027 ft | 413 kts | 261° |
| 2026-05-04 01:25 | 26.38995 | 38.74057 | 36019 ft | 413 kts | 261° |
| 2026-05-04 01:25 | 26.38450 | 38.67689 | 36019 ft | 413 kts | 261° |
| 2026-05-04 01:26 | 26.37900 | 38.61304 | 36006 ft | 413 kts | 261° |
| 2026-05-04 01:26 | 26.37348 | 38.54929 | 36005 ft | 413 kts | 261° |
| 2026-05-04 01:27 | 26.36793 | 38.48556 | 35976 ft | 412 kts | 261° |
| 2026-05-04 01:27 | 26.36234 | 38.42175 | 35988 ft | 414 kts | 261° |
| 2026-05-04 01:28 | 26.35672 | 38.35789 | 35975 ft | 414 kts | 261° |
| 2026-05-04 01:28 | 26.35106 | 38.29394 | 35972 ft | 414 kts | 261° |
| 2026-05-04 01:29 | 26.34540 | 38.23011 | 35968 ft | 414 kts | 261° |
| 2026-05-04 01:29 | 26.33969 | 38.16624 | 35976 ft | 414 kts | 261° |
| 2026-05-04 01:30 | 26.33391 | 38.10228 | 35972 ft | 415 kts | 261° |
| 2026-05-04 01:30 | 26.32812 | 38.03819 | 35962 ft | 415 kts | 261° |
| 2026-05-04 01:31 | 26.32239 | 37.97530 | 35981 ft | 415 kts | 261° |
| 2026-05-04 01:31 | 26.31654 | 37.91145 | 35970 ft | 414 kts | 260° |
| 2026-05-04 01:32 | 26.31067 | 37.84757 | 35969 ft | 415 kts | 261° |
| 2026-05-04 01:32 | 26.30476 | 37.78345 | 35977 ft | 416 kts | 261° |
| 2026-05-04 01:33 | 26.29888 | 37.71935 | 35978 ft | 416 kts | 261° |
| 2026-05-04 01:33 | 26.29291 | 37.65517 | 35978 ft | 418 kts | 260° |
| 2026-05-04 01:34 | 26.28686 | 37.59072 | 35973 ft | 418 kts | 260° |
| 2026-05-04 01:34 | 26.28088 | 37.52702 | 35975 ft | 417 kts | 260° |
| 2026-05-04 01:35 | 26.27480 | 37.46235 | 35985 ft | 417 kts | 260° |
| 2026-05-04 01:35 | 26.26879 | 37.39847 | 35961 ft | 417 kts | 260° |
| 2026-05-04 01:36 | 26.26265 | 37.33425 | 35956 ft | 417 kts | 259° |
| 2026-05-04 01:36 | 26.25649 | 37.27018 | 35932 ft | 416 kts | 260° |
| 2026-05-04 01:37 | 26.25032 | 37.20594 | 35928 ft | 416 kts | 260° |
| 2026-05-04 01:37 | 26.24413 | 37.14201 | 35923 ft | 417 kts | 260° |
| 2026-05-04 01:38 | 26.23791 | 37.07779 | 35919 ft | 417 kts | 260° |
| 2026-05-04 01:38 | 26.23167 | 37.01386 | 35907 ft | 416 kts | 260° |
| 2026-05-04 01:39 | 26.22541 | 36.94970 | 35910 ft | 416 kts | 259° |
| 2026-05-04 01:39 | 26.21912 | 36.88579 | 35895 ft | 415 kts | 259° |
| 2026-05-04 01:40 | 26.21279 | 36.82187 | 35892 ft | 415 kts | 259° |
| 2026-05-04 01:40 | 26.20748 | 36.75793 | 35893 ft | 417 kts | 264° |
| 2026-05-04 01:41 | 26.21097 | 36.70401 | 35894 ft | 424 kts | 274° |
| 2026-05-04 01:41 | 26.22979 | 36.64079 | 35890 ft | 440 kts | 288° |
| 2026-05-04 01:42 | 26.26502 | 36.58346 | 35873 ft | 456 kts | 300° |
| 2026-05-04 01:42 | 26.30764 | 36.53049 | 35872 ft | 462 kts | 303° |
| 2026-05-04 01:43 | 26.35155 | 36.47817 | 35886 ft | 461 kts | 303° |
| 2026-05-04 01:43 | 26.39492 | 36.42567 | 35889 ft | 459 kts | 302° |
| 2026-05-04 01:44 | 26.43770 | 36.37305 | 35886 ft | 458 kts | 302° |
| 2026-05-04 01:44 | 26.48047 | 36.32015 | 35890 ft | 458 kts | 302° |
| 2026-05-04 01:45 | 26.52315 | 36.26732 | 35899 ft | 458 kts | 302° |
| 2026-05-04 01:45 | 26.58713 | 36.18810 | 35924 ft | 457 kts | 302° |
| 2026-05-04 01:46 | 26.62958 | 36.13548 | 35886 ft | 455 kts | 302° |
| 2026-05-04 01:46 | 26.67190 | 36.08292 | 35903 ft | 455 kts | 302° |
| 2026-05-04 01:47 | 26.71420 | 36.03031 | 35909 ft | 455 kts | 302° |
| 2026-05-04 01:47 | 26.75650 | 35.97765 | 35907 ft | 455 kts | 302° |
| 2026-05-04 01:48 | 26.79769 | 35.92632 | 35889 ft | 455 kts | 302° |
| 2026-05-04 01:48 | 26.83993 | 35.87363 | 35909 ft | 455 kts | 302° |
| 2026-05-04 01:49 | 26.88214 | 35.82090 | 35911 ft | 455 kts | 302° |
| 2026-05-04 01:49 | 26.92404 | 35.76850 | 35911 ft | 455 kts | 302° |
| 2026-05-04 01:50 | 26.96613 | 35.71581 | 35905 ft | 453 kts | 302° |
| 2026-05-04 01:50 | 27.00802 | 35.66333 | 35909 ft | 451 kts | 302° |
| 2026-05-04 01:51 | 27.04974 | 35.61095 | 35908 ft | 451 kts | 302° |
| 2026-05-04 01:51 | 27.09144 | 35.55852 | 35909 ft | 451 kts | 302° |
| 2026-05-04 01:52 | 27.13280 | 35.50646 | 35914 ft | 451 kts | 302° |
| 2026-05-04 01:52 | 27.17451 | 35.45394 | 35916 ft | 449 kts | 301° |
| 2026-05-04 01:53 | 27.21589 | 35.40178 | 35917 ft | 448 kts | 301° |
| 2026-05-04 01:53 | 27.25730 | 35.34946 | 35916 ft | 448 kts | 301° |
| 2026-05-04 01:54 | 27.29868 | 35.29712 | 35919 ft | 448 kts | 301° |
| 2026-05-04 01:54 | 27.33999 | 35.24483 | 35933 ft | 448 kts | 301° |
| 2026-05-04 01:55 | 27.38131 | 35.19247 | 35926 ft | 446 kts | 301° |
| 2026-05-04 01:55 | 27.42239 | 35.14037 | 35908 ft | 445 kts | 301° |
| 2026-05-04 01:56 | 27.46341 | 35.08822 | 35925 ft | 445 kts | 301° |
| 2026-05-04 01:56 | 27.50438 | 35.03610 | 35929 ft | 445 kts | 301° |
| 2026-05-04 01:57 | 27.54539 | 34.98386 | 35924 ft | 445 kts | 301° |
| 2026-05-04 01:57 | 27.58634 | 34.93163 | 35922 ft | 445 kts | 301° |
| 2026-05-04 01:58 | 27.62733 | 34.87930 | 35922 ft | 445 kts | 301° |
| 2026-05-04 01:58 | 27.66824 | 34.82701 | 35922 ft | 445 kts | 301° |
| 2026-05-04 01:59 | 27.70890 | 34.77498 | 35922 ft | 445 kts | 301° |
| 2026-05-04 01:59 | 27.74974 | 34.72265 | 35965 ft | 445 kts | 301° |
| 2026-05-04 02:00 | 27.79062 | 34.67020 | 35929 ft | 444 kts | 301° |
| 2026-05-04 02:00 | 27.83137 | 34.61786 | 35934 ft | 444 kts | 301° |
| 2026-05-04 02:01 | 27.87216 | 34.56540 | 35935 ft | 444 kts | 301° |
| 2026-05-04 02:01 | 27.91285 | 34.51301 | 35937 ft | 444 kts | 301° |
| 2026-05-04 02:02 | 27.95425 | 34.46093 | 35945 ft | 449 kts | 306° |
| 2026-05-04 02:02 | 27.99831 | 34.41107 | 35939 ft | 444 kts | 301° |
| 2026-05-04 02:03 | 28.03801 | 34.35817 | 35934 ft | 442 kts | 300° |
| 2026-05-04 02:03 | 28.07712 | 34.30438 | 35932 ft | 442 kts | 300° |
| 2026-05-04 02:04 | 28.11607 | 34.25037 | 35944 ft | 442 kts | 300° |
| 2026-05-04 02:04 | 28.15490 | 34.19640 | 35976 ft | 442 kts | 300° |
| 2026-05-04 02:05 | 28.19376 | 34.14227 | 35971 ft | 443 kts | 300° |
| 2026-05-04 02:05 | 28.23269 | 34.08823 | 35990 ft | 443 kts | 300° |
| 2026-05-04 02:06 | 28.27132 | 34.03450 | 35984 ft | 442 kts | 300° |
| 2026-05-04 02:06 | 28.31009 | 33.98053 | 35997 ft | 441 kts | 300° |
| 2026-05-04 02:07 | 28.34879 | 33.92650 | 36003 ft | 441 kts | 300° |
| 2026-05-04 02:07 | 28.38749 | 33.87238 | 36006 ft | 442 kts | 300° |
| 2026-05-04 02:08 | 28.42509 | 33.81978 | 36011 ft | 442 kts | 300° |
| 2026-05-04 02:08 | 28.46383 | 33.76555 | 36007 ft | 442 kts | 300° |
| 2026-05-04 02:09 | 28.50257 | 33.71124 | 36016 ft | 442 kts | 300° |
| 2026-05-04 02:09 | 28.54132 | 33.65691 | 36060 ft | 442 kts | 300° |
| 2026-05-04 02:10 | 28.57999 | 33.60273 | 36009 ft | 441 kts | 300° |
| 2026-05-04 02:10 | 28.61853 | 33.54859 | 36010 ft | 440 kts | 300° |
| 2026-05-04 02:11 | 28.65708 | 33.49441 | 36029 ft | 440 kts | 300° |
| 2026-05-04 02:11 | 28.69549 | 33.44015 | 36012 ft | 440 kts | 300° |
| 2026-05-04 02:12 | 28.73330 | 33.38665 | 36023 ft | 440 kts | 300° |
| 2026-05-04 02:12 | 28.77168 | 33.33235 | 36039 ft | 440 kts | 300° |
| 2026-05-04 02:13 | 28.80993 | 33.27818 | 36021 ft | 439 kts | 300° |
| 2026-05-04 02:13 | 28.84788 | 33.22436 | 36022 ft | 439 kts | 300° |
| 2026-05-04 02:14 | 28.88615 | 33.17002 | 36030 ft | 440 kts | 300° |
| 2026-05-04 02:14 | 28.92442 | 33.11561 | 36044 ft | 439 kts | 300° |
| 2026-05-04 02:15 | 28.96262 | 33.06123 | 36045 ft | 439 kts | 300° |
| 2026-05-04 02:15 | 29.00079 | 33.00682 | 36053 ft | 439 kts | 300° |
| 2026-05-04 02:16 | 29.03848 | 32.95301 | 36054 ft | 439 kts | 300° |
| 2026-05-04 02:16 | 29.07659 | 32.89854 | 36058 ft | 439 kts | 300° |
| 2026-05-04 02:17 | 29.11470 | 32.84401 | 36059 ft | 438 kts | 300° |
| 2026-05-04 02:17 | 29.15269 | 32.78959 | 36058 ft | 438 kts | 300° |
| 2026-05-04 02:18 | 29.19064 | 32.73512 | 36060 ft | 438 kts | 300° |
| 2026-05-04 02:18 | 29.22860 | 32.68058 | 36062 ft | 438 kts | 300° |
| 2026-05-04 02:19 | 29.26652 | 32.62602 | 36061 ft | 438 kts | 300° |
| 2026-05-04 02:19 | 29.30437 | 32.57149 | 36066 ft | 436 kts | 300° |
| 2026-05-04 02:20 | 29.34183 | 32.51694 | 36098 ft | 435 kts | 299° |
| 2026-05-04 02:20 | 29.37920 | 32.46232 | 36075 ft | 435 kts | 299° |
| 2026-05-04 02:21 | 29.41623 | 32.40818 | 36073 ft | 434 kts | 299° |
| 2026-05-04 02:21 | 29.45354 | 32.35363 | 36081 ft | 434 kts | 299° |
| 2026-05-04 02:22 | 29.49069 | 32.29929 | 36075 ft | 431 kts | 299° |
| 2026-05-04 02:22 | 29.52763 | 32.24521 | 36084 ft | 430 kts | 299° |
| 2026-05-04 02:23 | 29.56443 | 32.19120 | 36084 ft | 429 kts | 299° |
| 2026-05-04 02:23 | 29.60124 | 32.13708 | 36085 ft | 430 kts | 299° |
| 2026-05-04 02:24 | 29.63805 | 32.08291 | 36088 ft | 430 kts | 299° |
| 2026-05-04 02:24 | 29.67484 | 32.02871 | 36089 ft | 429 kts | 299° |
| 2026-05-04 02:25 | 29.71150 | 31.97466 | 36089 ft | 428 kts | 299° |
| 2026-05-04 02:25 | 29.74810 | 31.92061 | 36089 ft | 428 kts | 299° |
| 2026-05-04 02:26 | 29.78468 | 31.86652 | 36092 ft | 428 kts | 299° |
| 2026-05-04 02:26 | 29.82044 | 31.81199 | 36091 ft | 426 kts | 297° |
| 2026-05-04 02:27 | 29.85530 | 31.75700 | 36084 ft | 424 kts | 297° |
| 2026-05-04 02:27 | 29.89011 | 31.70220 | 36083 ft | 424 kts | 297° |
| 2026-05-04 02:28 | 29.92491 | 31.64773 | 36087 ft | 424 kts | 298° |
| 2026-05-04 02:28 | 29.96021 | 31.59315 | 36073 ft | 424 kts | 298° |
| 2026-05-04 02:29 | 29.99554 | 31.53860 | 36071 ft | 424 kts | 298° |
| 2026-05-04 02:29 | 30.03053 | 31.48445 | 36077 ft | 424 kts | 298° |
| 2026-05-04 02:30 | 30.06575 | 31.42982 | 36074 ft | 424 kts | 298° |
| 2026-05-04 02:30 | 30.10384 | 31.37713 | 36077 ft | 434 kts | 306° |
| 2026-05-04 02:31 | 30.14042 | 31.33640 | 36075 ft | 437 kts | 307° |
| 2026-05-04 02:31 | 30.18493 | 31.28868 | 36078 ft | 437 kts | 307° |
| 2026-05-04 02:32 | 30.22953 | 31.24111 | 36101 ft | 436 kts | 307° |
| 2026-05-04 02:32 | 30.27360 | 31.19385 | 36064 ft | 435 kts | 307° |
| 2026-05-04 02:33 | 30.31760 | 31.14646 | 36064 ft | 434 kts | 307° |
| 2026-05-04 02:33 | 30.36177 | 31.09876 | 36065 ft | 434 kts | 307° |
| 2026-05-04 02:34 | 30.40480 | 31.05226 | 36067 ft | 434 kts | 307° |
| 2026-05-04 02:34 | 30.44896 | 31.00449 | 36058 ft | 434 kts | 307° |
| 2026-05-04 02:35 | 30.49305 | 30.95673 | 36130 ft | 434 kts | 307° |
| 2026-05-04 02:35 | 30.53721 | 30.90881 | 36058 ft | 436 kts | 307° |
| 2026-05-04 02:36 | 30.58152 | 30.86068 | 36059 ft | 437 kts | 308° |
| 2026-05-04 02:36 | 30.62585 | 30.81251 | 36059 ft | 436 kts | 307° |
| 2026-05-04 02:37 | 30.67013 | 30.76431 | 36059 ft | 436 kts | 307° |
| 2026-05-04 02:37 | 30.71438 | 30.71607 | 36056 ft | 436 kts | 307° |
| 2026-05-04 02:38 | 30.75867 | 30.66771 | 36059 ft | 436 kts | 307° |
| 2026-05-04 02:38 | 30.80282 | 30.61945 | 36056 ft | 436 kts | 307° |
| 2026-05-04 02:39 | 30.84676 | 30.57136 | 36065 ft | 436 kts | 308° |
| 2026-05-04 02:39 | 30.89078 | 30.52312 | 36056 ft | 436 kts | 308° |
| 2026-05-04 02:40 | 30.93495 | 30.47464 | 36053 ft | 436 kts | 308° |
| 2026-05-04 02:40 | 30.97908 | 30.42613 | 36053 ft | 436 kts | 308° |
| 2026-05-04 02:41 | 31.02318 | 30.37761 | 36054 ft | 436 kts | 308° |
| 2026-05-04 02:41 | 31.06606 | 30.32822 | 36066 ft | 428 kts | 302° |
| 2026-05-04 02:42 | 31.08375 | 30.30078 | 36318 ft | 419 kts | 296° |
| 2026-05-04 02:42 | 31.09790 | 30.27148 | 36686 ft | 411 kts | 289° |
| 2026-05-04 02:42 | 31.10853 | 30.24082 | 36985 ft | 406 kts | 285° |
| 2026-05-04 02:42 | 31.11770 | 30.20963 | 37247 ft | 406 kts | 284° |
| 2026-05-04 02:43 | 31.12635 | 30.17832 | 37485 ft | 406 kts | 283° |
| 2026-05-04 02:43 | 31.13480 | 30.14683 | 37729 ft | 406 kts | 283° |
| 2026-05-04 02:43 | 31.14318 | 30.11539 | 37963 ft | 406 kts | 283° |
| 2026-05-04 02:43 | 31.15161 | 30.08377 | 38058 ft | 410 kts | 283° |
| 2026-05-04 02:44 | 31.16982 | 30.02180 | 38059 ft | 415 kts | 289° |
| 2026-05-04 02:44 | 31.19995 | 29.96373 | 38048 ft | 425 kts | 303° |
| 2026-05-04 02:45 | 31.24435 | 29.91648 | 38049 ft | 443 kts | 318° |
| 2026-05-04 02:45 | 31.29838 | 29.88026 | 38047 ft | 451 kts | 323° |
| 2026-05-04 02:46 | 31.35402 | 29.84608 | 38049 ft | 452 kts | 323° |
| 2026-05-04 02:46 | 31.40969 | 29.81188 | 38055 ft | 451 kts | 323° |
| 2026-05-04 02:47 | 31.46451 | 29.77775 | 38050 ft | 447 kts | 323° |
| 2026-05-04 02:47 | 31.51922 | 29.74339 | 38051 ft | 446 kts | 323° |
| 2026-05-04 02:48 | 31.57401 | 29.70887 | 38039 ft | 446 kts | 323° |
| 2026-05-04 02:48 | 31.62873 | 29.67439 | 38040 ft | 447 kts | 323° |
| 2026-05-04 02:49 | 31.68306 | 29.64013 | 38054 ft | 447 kts | 323° |
| 2026-05-04 02:49 | 31.73782 | 29.60556 | 38037 ft | 447 kts | 323° |
| 2026-05-04 02:50 | 31.79257 | 29.57095 | 38031 ft | 447 kts | 323° |
| 2026-05-04 02:50 | 31.84722 | 29.53634 | 38066 ft | 446 kts | 323° |
| 2026-05-04 02:51 | 31.90173 | 29.50181 | 38034 ft | 443 kts | 323° |
| 2026-05-04 02:51 | 31.95594 | 29.46740 | 38034 ft | 442 kts | 323° |
| 2026-05-04 02:52 | 32.01004 | 29.43300 | 38034 ft | 442 kts | 323° |
| 2026-05-04 02:52 | 32.06412 | 29.39861 | 38034 ft | 442 kts | 323° |
| 2026-05-04 02:53 | 32.11819 | 29.36411 | 38055 ft | 442 kts | 323° |
| 2026-05-04 02:53 | 32.17206 | 29.32971 | 38039 ft | 441 kts | 323° |
| 2026-05-04 02:54 | 32.22495 | 29.29593 | 38034 ft | 440 kts | 323° |
| 2026-05-04 02:54 | 32.27883 | 29.26146 | 38013 ft | 440 kts | 323° |
| 2026-05-04 02:55 | 32.35929 | 29.20977 | 38019 ft | 439 kts | 323° |
| 2026-05-04 02:56 | 32.41290 | 29.17529 | 38020 ft | 438 kts | 323° |
| 2026-05-04 02:56 | 32.46648 | 29.14080 | 38016 ft | 438 kts | 323° |
| 2026-05-04 02:57 | 32.51969 | 29.10649 | 38016 ft | 438 kts | 323° |
| 2026-05-04 02:57 | 32.57320 | 29.07195 | 38016 ft | 438 kts | 323° |
| 2026-05-04 02:58 | 32.62718 | 29.03706 | 38018 ft | 438 kts | 323° |
| 2026-05-04 02:58 | 32.68034 | 29.00265 | 38041 ft | 439 kts | 323° |
| 2026-05-04 02:59 | 32.73406 | 28.96781 | 38017 ft | 441 kts | 323° |
| 2026-05-04 02:59 | 32.78671 | 28.93365 | 38017 ft | 441 kts | 324° |
| 2026-05-04 03:00 | 32.84052 | 28.89871 | 38019 ft | 440 kts | 324° |
| 2026-05-04 03:00 | 32.89414 | 28.86381 | 38022 ft | 439 kts | 324° |
| 2026-05-04 03:01 | 32.94777 | 28.82885 | 38020 ft | 439 kts | 324° |
| 2026-05-04 03:01 | 33.00143 | 28.79383 | 38018 ft | 440 kts | 324° |
| 2026-05-04 03:02 | 33.05512 | 28.75873 | 38018 ft | 440 kts | 324° |
| 2026-05-04 03:02 | 33.10783 | 28.72424 | 38018 ft | 440 kts | 323° |
| 2026-05-04 03:03 | 33.16149 | 28.68908 | 38014 ft | 440 kts | 323° |
| 2026-05-04 03:03 | 33.21519 | 28.65383 | 38017 ft | 440 kts | 324° |
| 2026-05-04 03:04 | 33.26871 | 28.61866 | 38019 ft | 440 kts | 324° |
| 2026-05-04 03:04 | 33.32249 | 28.58324 | 38010 ft | 442 kts | 324° |
| 2026-05-04 03:05 | 33.37637 | 28.54773 | 38004 ft | 442 kts | 324° |
| 2026-05-04 03:05 | 33.43014 | 28.51226 | 38008 ft | 442 kts | 324° |
| 2026-05-04 03:06 | 33.48402 | 28.47665 | 37996 ft | 442 kts | 324° |
| 2026-05-04 03:06 | 33.53780 | 28.44105 | 38008 ft | 442 kts | 324° |
| 2026-05-04 03:07 | 33.59192 | 28.40515 | 38000 ft | 446 kts | 324° |
| 2026-05-04 03:07 | 33.64630 | 28.36906 | 38003 ft | 446 kts | 324° |
| 2026-05-04 03:08 | 33.70051 | 28.33306 | 37998 ft | 444 kts | 325° |
| 2026-05-04 03:08 | 33.75413 | 28.29737 | 37999 ft | 443 kts | 325° |
| 2026-05-04 03:09 | 33.80803 | 28.26143 | 38011 ft | 443 kts | 325° |
| 2026-05-04 03:09 | 33.86176 | 28.22534 | 37996 ft | 441 kts | 325° |
| 2026-05-04 03:10 | 33.91528 | 28.18908 | 37990 ft | 441 kts | 325° |
| 2026-05-04 03:10 | 33.96875 | 28.15284 | 37990 ft | 441 kts | 325° |
| 2026-05-04 03:11 | 34.02223 | 28.11659 | 37990 ft | 441 kts | 325° |
| 2026-05-04 03:11 | 34.07565 | 28.08036 | 38027 ft | 441 kts | 325° |
| 2026-05-04 03:12 | 34.12909 | 28.04407 | 37989 ft | 440 kts | 325° |
| 2026-05-04 03:12 | 34.18233 | 28.00786 | 37985 ft | 439 kts | 325° |
| 2026-05-04 03:13 | 34.23548 | 27.97165 | 37985 ft | 439 kts | 325° |
| 2026-05-04 03:13 | 34.28717 | 27.93638 | 37983 ft | 439 kts | 325° |
| 2026-05-04 03:14 | 34.34038 | 27.90002 | 37981 ft | 439 kts | 325° |
| 2026-05-04 03:14 | 34.39355 | 27.86363 | 37978 ft | 441 kts | 325° |
| 2026-05-04 03:15 | 34.44713 | 27.82689 | 37978 ft | 443 kts | 325° |
| 2026-05-04 03:15 | 34.50084 | 27.79005 | 37980 ft | 443 kts | 325° |
| 2026-05-04 03:16 | 34.55408 | 27.75350 | 37977 ft | 443 kts | 325° |
| 2026-05-04 03:16 | 34.60803 | 27.71627 | 37971 ft | 443 kts | 325° |
| 2026-05-04 03:17 | 34.66164 | 27.67909 | 37981 ft | 446 kts | 325° |
| 2026-05-04 03:17 | 34.71543 | 27.64174 | 37973 ft | 450 kts | 325° |
| 2026-05-04 03:18 | 34.76994 | 27.60392 | 37977 ft | 451 kts | 325° |
| 2026-05-04 03:18 | 34.82434 | 27.56614 | 37977 ft | 451 kts | 325° |
| 2026-05-04 03:19 | 34.87878 | 27.52826 | 37977 ft | 450 kts | 325° |
| 2026-05-04 03:19 | 34.93325 | 27.49028 | 37983 ft | 453 kts | 326° |
| 2026-05-04 03:20 | 34.98816 | 27.45189 | 37983 ft | 457 kts | 326° |
| 2026-05-04 03:20 | 35.03402 | 27.41984 | 37971 ft | 457 kts | 326° |
| 2026-05-04 03:21 | 35.08908 | 27.38132 | 37966 ft | 456 kts | 326° |
| 2026-05-04 03:21 | 35.14417 | 27.34268 | 37961 ft | 456 kts | 326° |
| 2026-05-04 03:22 | 35.19850 | 27.30452 | 37960 ft | 456 kts | 326° |
| 2026-05-04 03:22 | 35.25351 | 27.26581 | 37946 ft | 456 kts | 326° |
| 2026-05-04 03:23 | 35.30848 | 27.22708 | 37953 ft | 456 kts | 326° |
| 2026-05-04 03:23 | 35.36343 | 27.18829 | 37952 ft | 456 kts | 326° |
| 2026-05-04 03:24 | 35.41831 | 27.14949 | 37938 ft | 454 kts | 326° |
| 2026-05-04 03:24 | 35.47336 | 27.11166 | 37943 ft | 453 kts | 328° |
| 2026-05-04 03:25 | 35.52872 | 27.07493 | 37943 ft | 453 kts | 328° |
| 2026-05-04 03:25 | 35.58368 | 27.03832 | 37949 ft | 453 kts | 328° |
| 2026-05-04 03:26 | 35.63897 | 27.00117 | 37941 ft | 453 kts | 328° |
| 2026-05-04 03:26 | 35.69414 | 26.96396 | 37967 ft | 452 kts | 328° |
| 2026-05-04 03:27 | 35.74968 | 26.92642 | 37980 ft | 453 kts | 328° |
| 2026-05-04 03:27 | 35.80464 | 26.88924 | 37983 ft | 454 kts | 328° |
| 2026-05-04 03:28 | 35.86032 | 26.85151 | 37985 ft | 453 kts | 328° |
| 2026-05-04 03:28 | 35.91551 | 26.81406 | 38000 ft | 452 kts | 328° |
| 2026-05-04 03:29 | 35.97017 | 26.77691 | 37998 ft | 452 kts | 328° |
| 2026-05-04 03:29 | 36.02531 | 26.73936 | 38019 ft | 452 kts | 329° |
| 2026-05-04 03:30 | 36.08033 | 26.70183 | 38018 ft | 452 kts | 328° |
| 2026-05-04 03:30 | 36.13536 | 26.66425 | 38016 ft | 452 kts | 328° |
| 2026-05-04 03:31 | 36.19028 | 26.62667 | 38015 ft | 452 kts | 328° |
| 2026-05-04 03:31 | 36.24535 | 26.58894 | 38021 ft | 452 kts | 328° |
| 2026-05-04 03:32 | 36.30038 | 26.55116 | 38021 ft | 453 kts | 329° |
| 2026-05-04 03:32 | 36.35542 | 26.51333 | 38023 ft | 452 kts | 329° |
| 2026-05-04 03:33 | 36.41029 | 26.47554 | 38029 ft | 451 kts | 329° |
| 2026-05-04 03:33 | 36.46519 | 26.43767 | 38029 ft | 451 kts | 329° |
| 2026-05-04 03:34 | 36.51995 | 26.39984 | 38044 ft | 451 kts | 329° |
| 2026-05-04 03:34 | 36.57491 | 26.36180 | 38028 ft | 454 kts | 329° |
| 2026-05-04 03:35 | 36.62987 | 26.32369 | 38028 ft | 455 kts | 329° |
| 2026-05-04 03:35 | 36.68557 | 26.28503 | 38050 ft | 455 kts | 329° |
| 2026-05-04 03:36 | 36.74088 | 26.24657 | 38048 ft | 455 kts | 329° |
| 2026-05-04 03:36 | 36.79560 | 26.20846 | 38045 ft | 453 kts | 329° |
| 2026-05-04 03:37 | 36.85071 | 26.17000 | 38049 ft | 455 kts | 329° |
| 2026-05-04 03:37 | 36.90593 | 26.13139 | 38054 ft | 456 kts | 329° |
| 2026-05-04 03:38 | 36.96130 | 26.09263 | 38057 ft | 456 kts | 329° |
| 2026-05-04 03:38 | 37.01656 | 26.05389 | 38057 ft | 456 kts | 329° |
| 2026-05-04 03:39 | 37.07185 | 26.01504 | 38061 ft | 457 kts | 329° |
| 2026-05-04 03:39 | 37.12743 | 25.97593 | 38060 ft | 459 kts | 329° |
| 2026-05-04 03:40 | 37.18325 | 25.93659 | 38060 ft | 459 kts | 329° |
| 2026-05-04 03:40 | 37.23878 | 25.89739 | 38066 ft | 458 kts | 329° |
| 2026-05-04 03:41 | 37.29431 | 25.85811 | 38064 ft | 458 kts | 329° |
| 2026-05-04 03:41 | 37.34988 | 25.81873 | 38067 ft | 459 kts | 329° |
| 2026-05-04 03:42 | 37.40558 | 25.77920 | 38074 ft | 460 kts | 329° |
| 2026-05-04 03:42 | 37.46118 | 25.73968 | 38072 ft | 459 kts | 329° |
| 2026-05-04 03:43 | 37.51659 | 25.70023 | 38078 ft | 460 kts | 329° |
| 2026-05-04 03:43 | 37.57223 | 25.66053 | 38086 ft | 460 kts | 329° |
| 2026-05-04 03:44 | 37.62796 | 25.62070 | 38074 ft | 461 kts | 329° |
| 2026-05-04 03:44 | 37.68378 | 25.58074 | 38083 ft | 461 kts | 329° |
| 2026-05-04 03:45 | 37.73954 | 25.54076 | 38084 ft | 461 kts | 329° |
| 2026-05-04 03:45 | 37.79491 | 25.50099 | 38092 ft | 461 kts | 329° |
| 2026-05-04 03:46 | 37.85075 | 25.46080 | 38094 ft | 461 kts | 329° |
| 2026-05-04 03:46 | 37.90646 | 25.42064 | 38099 ft | 461 kts | 329° |
| 2026-05-04 03:47 | 37.96217 | 25.38041 | 38106 ft | 461 kts | 329° |
| 2026-05-04 03:47 | 38.01787 | 25.34012 | 38106 ft | 461 kts | 329° |
| 2026-05-04 03:48 | 38.07358 | 25.29974 | 38103 ft | 460 kts | 329° |
| 2026-05-04 03:48 | 38.12793 | 25.26028 | 38113 ft | 461 kts | 329° |
| 2026-05-04 03:49 | 38.18363 | 25.21978 | 38111 ft | 462 kts | 329° |
| 2026-05-04 03:49 | 38.23929 | 25.17923 | 38115 ft | 462 kts | 329° |
| 2026-05-04 03:50 | 38.29510 | 25.13850 | 38120 ft | 462 kts | 329° |
| 2026-05-04 03:50 | 38.35076 | 25.09780 | 38129 ft | 462 kts | 329° |
| 2026-05-04 03:51 | 38.40654 | 25.05694 | 38122 ft | 463 kts | 329° |
| 2026-05-04 03:51 | 38.46246 | 25.01591 | 38128 ft | 464 kts | 329° |
| 2026-05-04 03:52 | 38.51831 | 24.97486 | 38117 ft | 461 kts | 329° |
| 2026-05-04 03:52 | 38.57369 | 24.93408 | 38137 ft | 459 kts | 329° |
| 2026-05-04 03:53 | 38.62905 | 24.89323 | 38133 ft | 460 kts | 330° |
| 2026-05-04 03:53 | 38.68430 | 24.85240 | 38125 ft | 462 kts | 330° |
| 2026-05-04 03:54 | 38.73999 | 24.81116 | 38130 ft | 462 kts | 330° |
| 2026-05-04 03:54 | 38.79562 | 24.76990 | 38126 ft | 462 kts | 329° |
| 2026-05-04 03:55 | 38.85124 | 24.72857 | 38141 ft | 462 kts | 330° |
| 2026-05-04 03:55 | 38.90666 | 24.68730 | 38134 ft | 464 kts | 330° |
| 2026-05-04 03:56 | 38.96251 | 24.64565 | 38135 ft | 464 kts | 330° |
| 2026-05-04 03:56 | 39.01830 | 24.60397 | 38143 ft | 464 kts | 330° |
| 2026-05-04 03:57 | 39.07402 | 24.56226 | 38139 ft | 464 kts | 329° |
| 2026-05-04 03:57 | 39.12983 | 24.52038 | 38141 ft | 464 kts | 330° |
| 2026-05-04 03:58 | 39.21369 | 24.45735 | 38144 ft | 465 kts | 330° |
| 2026-05-04 03:58 | 39.26956 | 24.41526 | 38144 ft | 465 kts | 330° |
| 2026-05-04 03:59 | 39.32536 | 24.37315 | 38139 ft | 465 kts | 330° |
| 2026-05-04 03:59 | 39.38105 | 24.33101 | 38148 ft | 463 kts | 330° |
| 2026-05-04 04:00 | 39.43664 | 24.28890 | 38150 ft | 463 kts | 330° |
| 2026-05-04 04:00 | 39.49215 | 24.24676 | 38161 ft | 463 kts | 330° |
| 2026-05-04 04:01 | 39.54775 | 24.20448 | 38153 ft | 463 kts | 330° |
| 2026-05-04 04:01 | 39.60333 | 24.16213 | 38158 ft | 463 kts | 330° |
| 2026-05-04 04:02 | 39.65885 | 24.11974 | 38153 ft | 464 kts | 330° |
| 2026-05-04 04:02 | 39.71456 | 24.07714 | 38154 ft | 464 kts | 330° |
| 2026-05-04 04:03 | 39.77017 | 24.03452 | 38147 ft | 463 kts | 330° |
| 2026-05-04 04:03 | 39.82516 | 23.99230 | 38161 ft | 461 kts | 330° |
| 2026-05-04 04:04 | 39.88042 | 23.94979 | 38170 ft | 462 kts | 330° |
| 2026-05-04 04:04 | 39.93563 | 23.90725 | 38150 ft | 462 kts | 330° |
| 2026-05-04 04:05 | 39.99104 | 23.86447 | 38150 ft | 462 kts | 330° |
| 2026-05-04 04:05 | 40.04634 | 23.82168 | 38172 ft | 462 kts | 330° |
| 2026-05-04 04:06 | 40.10155 | 23.77889 | 38153 ft | 462 kts | 330° |
| 2026-05-04 04:06 | 40.15695 | 23.73587 | 38157 ft | 463 kts | 330° |
| 2026-05-04 04:07 | 40.21221 | 23.69288 | 38157 ft | 461 kts | 330° |
| 2026-05-04 04:07 | 40.26721 | 23.65000 | 38158 ft | 460 kts | 330° |
| 2026-05-04 04:08 | 40.32230 | 23.60697 | 38160 ft | 460 kts | 330° |
| 2026-05-04 04:08 | 40.37726 | 23.56396 | 38160 ft | 460 kts | 330° |
| 2026-05-04 04:09 | 40.43224 | 23.52086 | 38161 ft | 460 kts | 330° |
| 2026-05-04 04:09 | 40.48726 | 23.47764 | 38164 ft | 460 kts | 330° |
| 2026-05-04 04:10 | 40.53287 | 23.44175 | 38163 ft | 460 kts | 330° |
| 2026-05-04 04:10 | 40.58771 | 23.39851 | 38157 ft | 459 kts | 331° |
| 2026-05-04 04:11 | 40.64235 | 23.35535 | 38164 ft | 456 kts | 331° |
| 2026-05-04 04:11 | 40.69677 | 23.31229 | 38165 ft | 456 kts | 331° |
| 2026-05-04 04:12 | 40.74965 | 23.27037 | 38166 ft | 456 kts | 331° |
| 2026-05-04 04:12 | 40.75887 | 23.26305 | 38166 ft | 456 kts | 331° |